Map

Track Data

SID SEASON NUMBER BASIN SUBBASIN NAME ISO_TIME NATURE LAT LON WMO_WIND WMO_PRES WMO_AGENCY TRACK_TYPE DIST2LAND LANDFALL IFLAG USA_AGENCY USA_ATCF_ID USA_LAT USA_LON USA_RECORD USA_STATUS USA_WIND USA_PRES USA_SSHS USA_R34_NE USA_R34_SE USA_R34_SW USA_R34_NW USA_R50_NE USA_R50_SE USA_R50_SW USA_R50_NW USA_R64_NE USA_R64_SE USA_R64_SW USA_R64_NW USA_POCI USA_ROCI USA_RMW USA_EYE TOKYO_LAT TOKYO_LON TOKYO_GRADE TOKYO_WIND TOKYO_PRES TOKYO_R50_DIR TOKYO_R50_LONG TOKYO_R50_SHORT TOKYO_R30_DIR TOKYO_R30_LONG TOKYO_R30_SHORT TOKYO_LAND CMA_LAT CMA_LON CMA_CAT CMA_WIND CMA_PRES HKO_LAT HKO_LON HKO_CAT HKO_WIND HKO_PRES NEWDELHI_LAT NEWDELHI_LON NEWDELHI_GRADE NEWDELHI_WIND NEWDELHI_PRES NEWDELHI_CI NEWDELHI_DP NEWDELHI_POCI REUNION_LAT REUNION_LON REUNION_TYPE REUNION_WIND REUNION_PRES REUNION_TNUM REUNION_CI REUNION_RMW REUNION_R34_NE REUNION_R34_SE REUNION_R34_SW REUNION_R34_NW REUNION_R50_NE REUNION_R50_SE REUNION_R50_SW REUNION_R50_NW REUNION_R64_NE REUNION_R64_SE REUNION_R64_SW REUNION_R64_NW BOM_LAT BOM_LON BOM_TYPE BOM_WIND BOM_PRES BOM_TNUM BOM_CI BOM_RMW BOM_R34_NE BOM_R34_SE BOM_R34_SW BOM_R34_NW BOM_R50_NE BOM_R50_SE BOM_R50_SW BOM_R50_NW BOM_R64_NE BOM_R64_SE BOM_R64_SW BOM_R64_NW BOM_ROCI BOM_POCI BOM_EYE BOM_POS_METHOD BOM_PRES_METHOD NADI_LAT NADI_LON NADI_CAT NADI_WIND NADI_PRES WELLINGTON_LAT WELLINGTON_LON WELLINGTON_WIND WELLINGTON_PRES DS824_LAT DS824_LON DS824_STAGE DS824_WIND DS824_PRES TD9636_LAT TD9636_LON TD9636_STAGE TD9636_WIND TD9636_PRES TD9635_LAT TD9635_LON TD9635_WIND TD9635_PRES TD9635_ROCI NEUMANN_LAT NEUMANN_LON NEUMANN_CLASS NEUMANN_WIND NEUMANN_PRES MLC_LAT MLC_LON MLC_CLASS MLC_WIND MLC_PRES USA_GUST BOM_GUST BOM_GUST_PER REUNION_GUST REUNION_GUST_PER USA_SEAHGT USA_SEARAD_NE USA_SEARAD_SE USA_SEARAD_SW USA_SEARAD_NW STORM_SPEED STORM_DIR
1972347S13068 1973 139 SI MM BEATRICE:IVY 1972-12-12 00:00:00 TS -12.7000 67.8000 reunion spur-split 1358 1349 _____O______O_ -1 -12.7000 67.8000 99 9.90000 -12.7000 67.8000 TC 40 4 306
1972347S13068 1973 139 SI MM BEATRICE:IVY 1972-12-12 03:00:00 TS -12.5925 67.6500 spur-split 1348 1347 _____P______P_ -1 -12.5775 67.6424 99 -12.5775 67.6424 TC 37 4 304
1972347S13068 1973 139 SI MM BEATRICE:IVY 1972-12-12 06:00:00 TS -12.5000 67.5000 reunion spur-split 1347 1339 _____O______O_ -1 -12.5000 67.5000 6 9.90000 -12.5000 67.5000 TC 35 3 291
1972347S13068 1973 139 SI MM BEATRICE:IVY 1972-12-12 09:00:00 TS -12.4925 67.3850 spur-split 1339 1331 _____P______P_ -1 -12.4925 67.3850 6 -12.4925 67.3850 TC 35 2 270
1972347S13068 1973 139 SI MM BEATRICE:IVY 1972-12-12 12:00:00 TS -12.5000 67.3000 reunion spur-split 1331 1322 _____O______O_ -1 -12.5000 67.3000 99 9.90000 -12.5000 67.3000 TC 35 1 284
1972347S13068 1973 139 SI MM BEATRICE:IVY 1972-12-12 15:00:00 TS -12.4575 67.2425 spur-split 1322 1322 _____P______P_ -1 -12.4575 67.2425 99 -12.4575 67.2425 TC 35 1 317
1972347S13068 1973 139 SI MM BEATRICE:IVY 1972-12-12 18:00:00 TS -12.4000 67.2000 reunion spur-split 1330 1330 _____O______O_ -1 -12.4000 67.2000 99 9.90000 -12.4000 67.2000 TC 35 1 322
1972347S13068 1973 139 SI MM BEATRICE:IVY 1972-12-12 21:00:00 TS -12.3500 67.1500 spur-split 1337 1329 _____P______P_ -1 -12.3500 67.1500 99 -12.3500 67.1500 TC 35 1 317
1972347S13068 1973 139 SI MM BEATRICE:IVY 1972-12-13 00:00:00 TS -12.3000 67.1000 reunion spur-split 1329 1329 _____O______O_ -1 -12.3000 67.1000 99 9.90000 -12.3000 67.1000 TC 35 1 322
1972347S13068 1973 139 SI MM BEATRICE:IVY 1972-12-13 03:00:00 TS -12.2425 67.0575 spur-split 1337 1329 _____P______P_ -1 -12.2425 67.0575 99 -12.2425 67.0575 TC 35 1 317
1972347S13068 1973 139 SI MM BEATRICE:IVY 1972-12-13 06:00:00 TS -12.2000 67.0000 reunion spur-split 1329 1321 _____O______O_ -1 -12.2000 67.0000 6 9.90000 -12.2000 67.0000 TC 35 2 286
1972347S13068 1973 139 SI MM BEATRICE:IVY 1972-12-13 09:00:00 TS -12.2000 66.9000 spur-split 1321 1313 _____P______P_ -1 -12.2000 66.9000 6 -12.2000 66.9000 TC 32 2 270
1972347S13068 1973 139 SI MM BEATRICE:IVY 1972-12-13 12:00:00 TS -12.2000 66.8000 reunion spur-split 1313 1313 _____O______O_ -1 -12.2000 66.8000 99 9.90000 -12.2000 66.8000 TC 30 2 288
1972347S13068 1973 139 SI MM BEATRICE:IVY 1972-12-13 15:00:00 TS -12.1500 66.7500 spur-split 1321 1313 _____P______P_ -1 -12.1500 66.7500 99 -12.1500 66.7500 TC 30 1 317
1972347S13068 1973 139 SI MM BEATRICE:IVY 1972-12-13 18:00:00 TS -12.1000 66.7000 reunion spur-split 1313 1305 _____O______O_ -1 -12.1000 66.7000 99 9.90000 -12.1000 66.7000 TC 30 2 291
1972347S13068 1973 139 SI MM BEATRICE:IVY 1972-12-13 21:00:00 TS -12.0925 66.6000 spur-split 1305 1297 _____P______P_ -1 -12.0925 66.6000 99 -12.0925 66.6000 TC 30 2 270
1972347S13068 1973 139 SI MM BEATRICE:IVY 1972-12-14 00:00:00 TS -12.1000 66.5000 reunion spur-split 1297 1290 _____O______O_ -1 -12.1000 66.5000 99 9.90000 -12.1000 66.5000 TC 30 2 267
1972347S13068 1973 139 SI MM BEATRICE:IVY 1972-12-14 03:00:00 TS -12.1000 66.4425 spur-split 1290 1290 _____P______P_ -1 -12.1000 66.4425 99 -12.1000 66.4425 TC 27 1 270
1972347S13068 1973 139 SI MM BEATRICE:IVY 1972-12-14 06:00:00 TS -12.1000 66.4000 reunion spur-split 1290 1290 _____O______O_ -1 -12.1000 66.4000 6 9.90000 -12.1000 66.4000 TC 25 1 270
1972347S13068 1973 139 SI MM BEATRICE:IVY 1972-12-14 09:00:00 TS -12.1000 66.3575 spur-split 1290 1282 _____P______P_ -1 -12.1000 66.3575 6 -12.1000 66.3575 TC 25 1 270
1972347S13068 1973 139 SI MM BEATRICE:IVY 1972-12-14 12:00:00 TS -12.1000 66.3000 reunion spur-split 1282 1274 _____O______O_ -1 -12.1000 66.3000 99 9.90000 -12.1000 66.3000 TC 25 2 270
1972347S13068 1973 139 SI MM BEATRICE:IVY 1972-12-14 15:00:00 TS -12.1000 66.1925 spur-split 1274 1267 _____P______P_ -1 -12.1000 66.1925 99 -12.1000 66.1925 TC 25 2 270
1972347S13068 1973 139 SI MM BEATRICE:IVY 1972-12-14 18:00:00 TS -12.1000 66.1000 reunion spur-split 1267 1267 _____O______O_ -1 -12.1000 66.1000 99 9.90000 -12.1000 66.1000 TC 25 1 266
1972347S13068 1973 139 SI MM BEATRICE:IVY 1972-12-14 21:00:00 TS -12.1075 66.0925 spur-split 1267 1267 _____P______P_ -1 -12.1075 66.0925 99 -12.1075 66.0925 TC 27 0 0
1972347S13068 1973 139 SI MM BEATRICE:IVY 1972-12-15 00:00:00 TS -12.1000 66.1000 reunion spur-split 1267 1267 _____O______O_ -1 -12.1000 66.1000 99 9.90000 -12.1000 66.1000 TC 30 1 0
1972347S13068 1973 139 SI MM BEATRICE:IVY 1972-12-15 03:00:00 TS -12.0500 66.0650 spur-split 1275 1267 _____P______P_ -1 -12.0500 66.0650 99 -12.0500 66.0650 TC 30 1 317
1972347S13068 1973 139 SI MM BEATRICE:IVY 1972-12-15 06:00:00 TS -12.0000 66.0000 reunion spur-split 1267 1260 _____O______O_ -1 -12.0000 66.0000 2 9.90000 -12.0000 66.0000 TC 30 2 291
1972347S13068 1973 139 SI MM BEATRICE:IVY 1972-12-15 09:00:00 TS -11.9925 65.9150 spur-split 1260 1252 _____P______P_ -1 -11.9925 65.9150 2 -11.9925 65.9150 TC 32 2 270
1972347S13068 1973 139 SI MM BEATRICE:IVY 1972-12-15 12:00:00 TS -12.0000 65.8000 reunion spur-split 1252 1245 _____O______O_ -1 -12.0000 65.8000 99 9.90000 -12.0000 65.8000 TC 35 3 268
1972347S13068 1973 139 SI MM BEATRICE:IVY 1972-12-15 15:00:00 TS -12.0000 65.6575 spur-split 1245 1231 _____P______P_ -1 -12.0000 65.6575 99 -12.0000 65.6575 TC 35 3 270
1972347S13068 1973 139 SI MM BEATRICE:IVY 1972-12-15 18:00:00 TS -12.0000 65.5000 reunion spur-split 1231 1223 _____O______O_ -1 -12.0000 65.5000 99 9.90000 -12.0000 65.5000 TC 35 3 270
1972347S13068 1973 139 SI MM BEATRICE:IVY 1972-12-15 21:00:00 TS -12.0000 65.3425 spur-split 1216 1209 _____P______P_ -1 -12.0000 65.3425 99 -12.0000 65.3425 TC 35 3 270
1972347S13068 1973 139 SI MM BEATRICE:IVY 1972-12-16 00:00:00 TS -12.0000 65.2000 reunion spur-split 1209 1202 _____O______O_ -1 -12.0000 65.2000 99 9.90000 -12.0000 65.2000 TC 35 2 272
1972347S13068 1973 139 SI MM BEATRICE:IVY 1972-12-16 03:00:00 TS -11.9925 65.0925 spur-split 1202 1195 _____P______P_ -1 -11.9925 65.0925 99 -11.9925 65.0925 TC 35 2 270
1972347S13068 1973 139 SI MM BEATRICE:IVY 1972-12-16 06:00:00 TS -12.0000 65.0000 reunion spur-split 1195 1188 _____O______O_ -1 -12.0000 65.0000 2 9.90000 -12.0000 65.0000 TC 35 2 254
1972347S13068 1973 139 SI MM BEATRICE:IVY 1972-12-16 09:00:00 TS -12.0425 64.9225 spur-split 1188 1173 _____P______P_ -1 -12.0425 64.9225 2 -12.0425 64.9225 TC 37 2 243
1972347S13068 1973 139 SI MM BEATRICE:IVY 1972-12-16 12:00:00 TS -12.1000 64.8000 reunion spur-split 1173 1159 _____O______O_ -1 -12.1000 64.8000 99 9.90000 -12.1000 64.8000 TC 40 4 255
1972347S13068 1973 139 SI MM BEATRICE:IVY 1972-12-16 15:00:00 TS -12.1426 64.5500 spur-split 1159 1130 _____P______P_ -1 -12.1426 64.5500 99 -12.1426 64.5500 TC 40 5 258
1972347S13068 1973 139 SI MM BEATRICE:IVY 1972-12-16 18:00:00 TS -12.2000 64.3000 reunion spur-split 1130 1114 _____O______O_ -1 -12.2000 64.3000 99 9.90000 -12.2000 64.3000 TC 40 4 249
1972347S13068 1973 139 SI MM BEATRICE:IVY 1972-12-16 21:00:00 TS -12.2850 64.1775 spur-split 1114 1099 _____P______P_ -1 -12.2850 64.1775 99 -12.2850 64.1775 TC 42 3 224
1972347S13068 1973 139 SI MM BEATRICE:IVY 1972-12-17 00:00:00 TS -12.4000 64.1000 reunion spur-split 1099 1083 _____O______O_ -1 -12.4000 64.1000 99 9.90000 -12.4000 64.1000 TC 45 3 214
1972347S13068 1973 139 SI MM BEATRICE:IVY 1972-12-17 03:00:00 TS -12.5500 63.9925 spur-split 1083 1059 _____P______P_ -1 -12.5500 63.9925 99 -12.5500 63.9925 TC 45 4 213
1972347S13068 1973 139 SI MM BEATRICE:IVY 1972-12-17 06:00:00 TS -12.7000 63.9000 reunion spur-split 1059 1050 _____O______O_ -1 -12.7000 63.9000 2 9.90000 -12.7000 63.9000 TC 45 3 204
1972347S13068 1973 139 SI MM BEATRICE:IVY 1972-12-17 09:00:00 TS -12.8150 63.8725 spur-split 1050 1035 _____P______P_ -1 -12.8150 63.8725 2 -12.8150 63.8725 TC 45 2 207
1972347S13068 1973 139 SI MM BEATRICE:IVY 1972-12-17 12:00:00 TS -12.9000 63.8000 reunion spur-split 1035 1022 _____O______O_ -1 -12.9000 63.8000 99 9.90000 -12.9000 63.8000 TC 45 3 246
1972347S13068 1973 139 SI MM BEATRICE:IVY 1972-12-17 15:00:00 TS -12.9501 63.5650 spur-split 1013 993 _____P______P_ -1 -12.9501 63.5650 99 -12.9501 63.5650 TC 45 5 258
1972347S13068 1973 139 SI MM BEATRICE:IVY 1972-12-17 18:00:00 TS -13.0000 63.3000 reunion spur-split 993 971 _____O______O_ -1 -13.0000 63.3000 99 9.90000 -13.0000 63.3000 TC 45 5 255
1972347S13068 1973 139 SI MM BEATRICE:IVY 1972-12-17 21:00:00 TS -13.0700 63.1125 spur-split 971 956 _____P______P_ -1 -13.0700 63.1125 99 -13.0700 63.1125 TC 47 4 236
1972347S13068 1973 139 SI MM BEATRICE:IVY 1972-12-18 00:00:00 TS -13.2000 63.0000 reunion spur-split 956 938 _____O______O_ -1 -13.2000 63.0000 99 9.90000 -13.2000 63.0000 TC 50 4 197
1972347S13068 1973 139 SI MM BEATRICE:IVY 1972-12-18 03:00:00 TS -13.4575 62.9924 spur-split 929 911 _____P______P_ -1 -13.4575 62.9924 99 -13.4575 62.9924 TC 50 5 178
1972347S13068 1973 139 SI MM BEATRICE:IVY 1972-12-18 06:00:00 TS -13.7000 63.0000 reunion spur-split 911 895 _____O______O_ -1 -13.7000 63.0000 3 9.90000 -13.7000 63.0000 TC 50 3 193
1972347S13068 1973 139 SI MM BEATRICE:IVY 1972-12-18 09:00:00 TS -13.7725 62.9075 spur-split 895 889 _____P______P_ -1 -13.7975 62.9275 3 -13.7975 62.9275 TC 52 2 243
1972347S13068 1973 139 SI MM BEATRICE:IVY 1972-12-18 12:00:00 TS -13.8000 62.8000 reunion spur-split 889 _____O______O_ -1 -13.8000 62.8000 99 9.90000 -13.8000 62.8000 TC 55 2 255

About IBTrACS Database

This database is a web-friendly format of International Best Track Archive for Climate Stewardship (IBTrACS), a global best track data archive curated by NOAA dating back to 1842.

Updated: 2021-10-08